createdAt,value
2018-06-02T00:00:31.589Z,107.20
2018-06-02T00:03:00.448Z,80.63
2018-06-02T00:05:29.288Z,104.50
2018-06-02T00:07:58.132Z,105.43
2018-06-02T00:10:27.045Z,81.23
2018-06-02T00:12:55.915Z,93.33
2018-06-02T00:15:24.773Z,83.50
2018-06-02T00:17:53.742Z,102.00
2018-06-02T00:20:22.658Z,79.40
2018-06-02T00:22:51.536Z,95.50
2018-06-02T00:25:20.438Z,102.10
2018-06-02T00:27:49.311Z,106.80
2018-06-02T00:30:18.492Z,101.17
2018-06-02T00:32:47.345Z,102.27
2018-06-02T00:35:16.192Z,79.90
2018-06-02T00:37:45.098Z,75.33
2018-06-02T00:40:13.977Z,86.63
2018-06-02T00:42:42.846Z,89.47
2018-06-02T00:45:11.731Z,88.97
2018-06-02T00:47:40.595Z,87.27
2018-06-02T00:50:09.462Z,88.43
2018-06-02T00:52:38.342Z,97.63
2018-06-02T00:55:08.127Z,88.17
2018-06-02T00:57:36.981Z,89.70
2018-06-02T01:00:05.853Z,86.70
2018-06-02T01:02:34.731Z,98.33
2018-06-02T01:05:03.613Z,84.70
2018-06-02T01:07:32.483Z,98.13
2018-06-02T01:10:01.335Z,88.93
2018-06-02T01:12:30.176Z,70.57
2018-06-02T01:14:59.070Z,76.07
2018-06-02T01:17:27.913Z,90.40
2018-06-02T01:19:56.789Z,83.63
2018-06-02T01:22:25.667Z,85.30
2018-06-02T01:24:54.509Z,84.33
2018-06-02T01:27:23.353Z,89.07
2018-06-02T01:29:52.304Z,101.73
2018-06-02T01:32:21.146Z,68.40
2018-06-02T01:34:49.998Z,103.40
2018-06-02T01:37:18.868Z,82.63
2018-06-02T01:39:47.707Z,84.43
2018-06-02T01:42:16.581Z,96.67
2018-06-02T01:44:46.347Z,85.73
2018-06-02T01:47:15.991Z,82.87
2018-06-02T01:49:45.477Z,85.97
2018-06-02T01:52:14.711Z,96.13
2018-06-02T01:54:43.603Z,88.33
2018-06-02T01:57:12.480Z,74.47
2018-06-02T01:59:41.352Z,93.50
2018-06-02T02:02:10.219Z,83.30
2018-06-02T02:04:39.096Z,77.73
2018-06-02T02:07:07.991Z,83.63
2018-06-02T02:09:36.834Z,81.03
2018-06-02T02:12:05.696Z,84.50
2018-06-02T02:14:34.537Z,69.87
2018-06-02T02:17:03.425Z,75.37
2018-06-02T02:19:32.337Z,84.77
2018-06-02T02:22:01.186Z,76.73
2018-06-02T02:24:30.076Z,78.83
2018-06-02T02:26:58.983Z,70.63
2018-06-02T02:29:27.827Z,69.83
2018-06-02T02:31:56.682Z,70.53
2018-06-02T02:34:25.551Z,75.83
2018-06-02T02:36:54.413Z,61.60
2018-06-02T02:39:23.329Z,75.03
2018-06-02T02:41:52.303Z,55.53
2018-06-02T02:44:21.159Z,65.47
2018-06-02T02:46:50.013Z,64.47
2018-06-02T02:49:18.890Z,64.60
2018-06-02T02:51:47.766Z,69.37
2018-06-02T02:54:16.618Z,74.47
2018-06-02T02:56:45.496Z,60.57
2018-06-02T02:59:14.380Z,65.13
2018-06-02T03:01:43.293Z,67.63
2018-06-02T03:04:12.160Z,64.90
2018-06-02T03:06:41.005Z,72.63
2018-06-02T03:09:09.862Z,66.80
2018-06-02T03:11:38.753Z,69.80
2018-06-02T03:14:07.616Z,66.87
2018-06-02T03:16:36.485Z,58.40
2018-06-02T03:19:05.353Z,60.20
2018-06-02T03:21:34.194Z,59.43
2018-06-02T03:24:03.100Z,52.97
2018-06-02T03:26:31.994Z,49.97
2018-06-02T03:29:00.838Z,48.60
2018-06-02T03:31:29.702Z,44.80
2018-06-02T03:33:58.559Z,40.50
2018-06-02T03:36:27.438Z,46.80
2018-06-02T03:38:56.338Z,46.30
2018-06-02T03:41:25.178Z,45.57
2018-06-02T03:43:54.034Z,53.07
2018-06-02T03:46:22.902Z,57.40
2018-06-02T03:48:51.734Z,54.13
2018-06-02T03:51:20.574Z,54.97
2018-06-02T03:53:49.493Z,50.47
2018-06-02T03:56:18.352Z,58.20
2018-06-02T03:58:47.202Z,51.80
2018-06-02T04:01:16.100Z,56.97
2018-06-02T04:03:44.978Z,50.63
2018-06-02T04:06:13.892Z,48.23
2018-06-02T04:08:42.778Z,56.37
2018-06-02T04:11:11.658Z,48.87
2018-06-02T04:13:40.519Z,46.53
2018-06-02T04:16:09.402Z,47.93
2018-06-02T04:18:38.278Z,49.87
2018-06-02T04:21:07.138Z,48.63
2018-06-02T04:23:36.025Z,45.80
2018-06-02T04:26:04.860Z,47.70
2018-06-02T04:28:33.715Z,46.47
2018-06-02T04:31:02.603Z,46.23
2018-06-02T04:33:31.474Z,46.43
2018-06-02T04:36:00.369Z,45.27
2018-06-02T04:38:29.238Z,42.87
2018-06-02T04:40:58.076Z,45.43
2018-06-02T04:43:26.925Z,40.20
2018-06-02T04:45:55.815Z,44.17
2018-06-02T04:48:24.659Z,37.37
2018-06-02T04:50:53.515Z,42.20
2018-06-02T04:53:22.409Z,40.33
2018-06-02T04:55:51.260Z,39.97
2018-06-02T04:58:20.138Z,41.40
2018-06-02T05:00:49.246Z,40.63
2018-06-02T05:03:18.087Z,40.00
2018-06-02T05:05:46.938Z,41.67
2018-06-02T05:08:15.815Z,38.80
2018-06-02T05:10:44.665Z,45.27
2018-06-02T05:13:14.229Z,38.97
2018-06-02T05:15:43.122Z,38.60
2018-06-02T05:18:12.001Z,36.07
2018-06-02T05:20:40.898Z,38.33
2018-06-02T05:23:09.757Z,35.00
2018-06-02T05:25:38.669Z,35.10
2018-06-02T05:28:07.542Z,30.23
2018-06-02T05:30:36.393Z,29.50
2018-06-02T05:33:05.269Z,26.53
2018-06-02T05:35:34.462Z,23.60
2018-06-02T05:38:03.380Z,21.87
2018-06-02T05:40:32.256Z,22.33
2018-06-02T05:43:01.154Z,23.50
2018-06-02T05:45:30.046Z,23.13
2018-06-02T05:47:58.890Z,27.27
2018-06-02T05:50:27.753Z,23.87
2018-06-02T05:52:56.596Z,24.60
2018-06-02T05:55:25.491Z,21.63
2018-06-02T05:57:54.480Z,19.17
2018-06-02T06:00:23.367Z,18.77
2018-06-02T06:02:52.249Z,18.10
2018-06-02T06:05:21.124Z,17.20
2018-06-02T06:07:50.010Z,18.20
2018-06-02T06:10:18.906Z,20.53
2018-06-02T06:12:47.747Z,20.30
2018-06-02T06:15:16.824Z,16.80
2018-06-02T06:17:45.702Z,17.13
2018-06-02T06:20:14.574Z,16.37
2018-06-02T06:22:43.467Z,16.53
2018-06-02T06:25:12.389Z,15.20
2018-06-02T06:27:41.233Z,15.53
2018-06-02T06:30:10.100Z,13.57
2018-06-02T06:32:38.971Z,17.70
2018-06-02T06:35:07.842Z,17.33
2018-06-02T06:37:36.706Z,13.23
2018-06-02T06:40:05.587Z,14.53
2018-06-02T06:42:34.426Z,13.93
2018-06-02T06:45:03.305Z,17.30
2018-06-02T06:47:32.198Z,13.80
2018-06-02T06:50:01.089Z,16.53
2018-06-02T06:52:29.947Z,15.83
2018-06-02T06:54:58.809Z,17.60
2018-06-02T06:57:27.655Z,17.20
2018-06-02T06:59:56.515Z,17.77
2018-06-02T07:02:25.407Z,19.93
2018-06-02T07:04:54.258Z,17.20
2018-06-02T07:07:23.147Z,16.57
2018-06-02T07:09:51.999Z,14.73
2018-06-02T07:12:20.858Z,13.17
2018-06-02T07:14:49.780Z,13.23
2018-06-02T07:17:18.625Z,12.70
2018-06-02T07:19:47.506Z,10.70
2018-06-02T07:22:16.425Z,11.33
2018-06-02T07:24:45.286Z,10.97
2018-06-02T07:27:14.103Z,11.77
2018-06-02T07:29:42.973Z,13.70
2018-06-02T07:32:11.827Z,11.10
2018-06-02T07:34:40.664Z,13.90
2018-06-02T07:37:09.563Z,12.60
2018-06-02T07:39:38.447Z,14.73
2018-06-02T07:42:07.307Z,13.43
2018-06-02T07:44:36.205Z,10.23
2018-06-02T07:47:05.057Z,10.67
2018-06-02T07:49:33.937Z,8.67
2018-06-02T07:52:02.781Z,9.63
2018-06-02T07:54:31.615Z,8.87
2018-06-02T07:57:00.499Z,8.73
2018-06-02T07:59:29.382Z,9.30
2018-06-02T08:01:58.221Z,8.50
2018-06-02T08:04:27.088Z,6.70
2018-06-02T08:06:55.990Z,8.53
2018-06-02T08:09:24.876Z,8.17
2018-06-02T08:11:53.793Z,7.67
2018-06-02T08:14:22.644Z,10.33
2018-06-02T08:16:51.546Z,9.43
2018-06-02T08:19:20.432Z,8.37
2018-06-02T08:21:49.292Z,9.30
2018-06-02T08:24:18.204Z,10.07
2018-06-02T08:26:47.670Z,8.37
2018-06-02T08:29:16.502Z,9.63
2018-06-02T08:31:45.389Z,8.40
2018-06-02T08:34:14.762Z,9.03
2018-06-02T08:36:43.614Z,8.97
2018-06-02T08:39:12.458Z,8.97
2018-06-02T08:41:41.298Z,11.23
2018-06-02T08:44:10.263Z,8.13
2018-06-02T08:46:39.141Z,9.20
2018-06-02T08:49:07.992Z,10.57
2018-06-02T08:51:37.087Z,9.13
2018-06-02T08:54:05.938Z,10.17
2018-06-02T08:56:34.793Z,10.70
2018-06-02T08:59:05.192Z,11.50
2018-06-02T09:01:34.044Z,10.37
2018-06-02T09:04:02.948Z,9.27
2018-06-02T09:06:31.782Z,9.03
2018-06-02T09:09:00.630Z,8.60
2018-06-02T09:11:29.482Z,8.93
2018-06-02T09:13:58.448Z,9.30
2018-06-02T09:16:28.280Z,10.53
2018-06-02T09:18:57.144Z,7.73
2018-06-02T09:21:26.654Z,8.73
2018-06-02T09:23:55.525Z,7.10
2018-06-02T09:26:24.794Z,7.77
2018-06-02T09:28:53.632Z,8.70
2018-06-02T09:31:22.512Z,8.33
2018-06-02T09:33:51.424Z,8.43
2018-06-02T09:36:20.519Z,8.63
2018-06-02T09:38:49.398Z,8.33
2018-06-02T09:41:18.278Z,8.43
2018-06-02T09:43:47.818Z,8.27
2018-06-02T09:46:16.665Z,8.23
2018-06-02T09:48:45.565Z,8.93
2018-06-02T09:51:14.450Z,7.67
2018-06-02T09:53:43.326Z,7.97
2018-06-02T09:56:12.205Z,7.13
2018-06-02T09:58:41.045Z,7.33
2018-06-02T10:01:10.521Z,8.97
2018-06-02T10:03:39.442Z,9.10
2018-06-02T10:06:08.823Z,8.60
2018-06-02T10:08:37.675Z,8.77
2018-06-02T10:11:06.572Z,7.93
2018-06-02T10:13:35.483Z,7.73
2018-06-02T10:16:04.339Z,8.97
2018-06-02T10:18:33.457Z,9.20
2018-06-02T10:21:02.323Z,8.43
2018-06-02T10:23:31.288Z,9.27
2018-06-02T10:26:00.126Z,8.60
2018-06-02T10:28:29.019Z,9.63
2018-06-02T10:30:57.867Z,11.80
2018-06-02T10:33:26.821Z,8.50
2018-06-02T10:35:55.730Z,10.77
2018-06-02T10:38:24.571Z,9.07
2018-06-02T10:40:53.449Z,7.77
2018-06-02T10:43:22.305Z,7.83
2018-06-02T10:45:51.199Z,8.93
2018-06-02T10:48:20.133Z,8.17
2018-06-02T10:50:48.967Z,10.40
2018-06-02T10:53:17.801Z,9.23
2018-06-02T10:55:46.649Z,12.80
2018-06-02T10:58:15.496Z,9.70
2018-06-02T11:00:44.413Z,10.53
2018-06-02T11:03:13.289Z,11.83
2018-06-02T11:05:42.188Z,9.60
2018-06-02T11:08:11.054Z,9.77
2018-06-02T11:10:39.903Z,12.00
2018-06-02T11:13:08.806Z,10.23
2018-06-02T11:15:37.660Z,12.23
2018-06-02T11:18:06.574Z,10.13
2018-06-02T11:20:35.473Z,9.93
2018-06-02T11:23:04.333Z,9.60
2018-06-02T11:25:33.161Z,8.60
2018-06-02T11:28:02.036Z,12.40
2018-06-02T11:30:30.901Z,11.00
2018-06-02T11:32:59.740Z,9.50
2018-06-02T11:35:28.628Z,8.83
2018-06-02T11:37:57.465Z,9.97
2018-06-02T11:40:26.433Z,9.37
2018-06-02T11:42:55.337Z,10.30
2018-06-02T11:45:24.171Z,11.63
2018-06-02T11:47:53.018Z,12.77
2018-06-02T11:50:21.925Z,9.70
2018-06-02T11:52:50.788Z,14.03
2018-06-02T11:55:19.683Z,11.53
2018-06-02T11:57:48.569Z,11.70
2018-06-02T12:00:17.498Z,14.23
2018-06-02T12:02:46.887Z,9.57
2018-06-02T12:05:15.752Z,13.73
2018-06-02T12:07:44.627Z,10.63
2018-06-02T12:10:13.488Z,9.70
2018-06-02T12:12:42.322Z,9.67
2018-06-02T12:15:11.211Z,11.13
2018-06-02T12:17:40.052Z,9.27
2018-06-02T12:20:08.904Z,10.77
2018-06-02T12:22:37.783Z,8.83
2018-06-02T12:25:06.636Z,10.67
2018-06-02T12:27:35.496Z,9.33
2018-06-02T12:30:04.375Z,9.07
2018-06-02T12:32:33.244Z,15.67
2018-06-02T12:35:02.097Z,10.37
2018-06-02T12:37:30.976Z,11.90
2018-06-02T12:39:59.859Z,17.50
2018-06-02T12:42:28.767Z,17.63
2018-06-02T12:44:57.645Z,12.03
2018-06-02T12:47:26.510Z,17.40
2018-06-02T12:49:55.387Z,10.97
2018-06-02T12:52:24.289Z,11.07
2018-06-02T12:54:53.176Z,12.40
2018-06-02T12:57:22.017Z,11.60
2018-06-02T12:59:50.885Z,11.93
2018-06-02T13:02:19.736Z,15.27
2018-06-02T13:04:48.609Z,14.50
2018-06-02T13:07:17.543Z,11.67
2018-06-02T13:09:46.422Z,20.93
2018-06-02T13:12:15.387Z,14.53
2018-06-02T13:14:44.271Z,15.40
2018-06-02T13:17:13.188Z,28.07
2018-06-02T13:19:42.031Z,20.10
2018-06-02T13:22:10.907Z,14.97
2018-06-02T13:24:39.807Z,13.20
2018-06-02T13:27:08.648Z,11.77
2018-06-02T13:29:37.541Z,10.97
2018-06-02T13:32:06.387Z,16.80
2018-06-02T13:34:35.264Z,13.77
2018-06-02T13:37:04.187Z,11.27
2018-06-02T13:39:33.035Z,12.70
2018-06-02T13:42:01.901Z,12.47
2018-06-02T13:44:30.812Z,15.93
2018-06-02T13:46:59.637Z,19.13
2018-06-02T13:49:28.521Z,18.73
2018-06-02T13:51:57.386Z,9.80
2018-06-02T13:54:26.257Z,14.80
2018-06-02T13:56:55.114Z,11.43
2018-06-02T13:59:23.999Z,10.13
2018-06-02T14:01:52.834Z,12.67
2018-06-02T14:04:21.666Z,18.77
2018-06-02T14:06:50.565Z,8.57
2018-06-02T14:09:19.404Z,9.87
2018-06-02T14:11:48.283Z,46.03
2018-06-02T14:14:17.122Z,20.17
2018-06-02T14:16:46.507Z,12.20
2018-06-02T14:19:15.403Z,13.80
2018-06-02T14:21:44.282Z,8.20
2018-06-02T14:24:13.127Z,12.07
2018-06-02T14:26:42.002Z,17.60
2018-06-02T14:29:10.886Z,17.67
2018-06-02T14:31:39.725Z,8.93
2018-06-02T14:34:08.598Z,24.33
2018-06-02T14:36:37.488Z,11.03
2018-06-02T14:39:06.370Z,8.33
2018-06-02T14:41:35.250Z,11.87
2018-06-02T14:44:04.126Z,15.80
2018-06-02T14:46:32.991Z,9.27
2018-06-02T14:49:02.113Z,9.50
2018-06-02T14:51:30.946Z,9.43
2018-06-02T14:53:59.823Z,9.60
2018-06-02T14:56:28.684Z,11.00
2018-06-02T14:58:57.544Z,10.40
2018-06-02T15:01:26.398Z,15.27
2018-06-02T15:03:55.339Z,12.27
2018-06-02T15:06:24.210Z,14.37
2018-06-02T15:08:53.050Z,21.10
2018-06-02T15:11:21.903Z,12.00
2018-06-02T15:13:50.763Z,10.63
2018-06-02T15:16:19.664Z,14.17
2018-06-02T15:18:48.554Z,19.60
2018-06-02T15:21:17.408Z,15.63
2018-06-02T15:23:46.274Z,11.47
2018-06-02T15:26:16.009Z,11.40
2018-06-02T15:28:44.886Z,11.33
2018-06-02T15:31:13.756Z,10.50
2018-06-02T15:33:42.664Z,25.93
2018-06-02T15:36:11.516Z,16.57
2018-06-02T15:38:40.402Z,16.00
2018-06-02T15:41:09.289Z,20.77
2018-06-02T15:43:38.131Z,10.20
2018-06-02T15:46:07.017Z,16.17
2018-06-02T15:48:35.955Z,14.33
2018-06-02T15:51:04.753Z,16.40
2018-06-02T15:53:34.456Z,14.83
2018-06-02T15:56:03.332Z,19.00
2018-06-02T15:58:32.235Z,22.00
2018-06-02T16:01:01.205Z,13.03
2018-06-02T16:03:30.242Z,15.13
2018-06-02T16:05:59.089Z,9.87
2018-06-02T16:08:27.934Z,14.03
2018-06-02T16:10:56.795Z,17.83
2018-06-02T16:13:26.445Z,10.13
2018-06-02T16:15:55.279Z,11.10
2018-06-02T16:18:24.135Z,10.10
2018-06-02T16:20:52.999Z,15.47
2018-06-02T16:23:22.051Z,17.17
2018-06-02T16:25:50.950Z,10.80
2018-06-02T16:28:19.843Z,21.07
2018-06-02T16:30:48.761Z,14.53
2018-06-02T16:33:17.748Z,14.73
2018-06-02T16:35:46.620Z,12.83
2018-06-02T16:38:15.515Z,15.87
2018-06-02T16:40:44.383Z,14.07
2018-06-02T16:43:13.267Z,14.20
2018-06-02T16:45:42.115Z,15.43
2018-06-02T16:48:10.955Z,15.30
2018-06-02T16:50:39.859Z,14.23
2018-06-02T16:53:08.725Z,13.67
2018-06-02T16:55:38.353Z,18.50
2018-06-02T16:58:07.225Z,14.77
2018-06-02T17:00:36.063Z,17.63
2018-06-02T17:03:04.935Z,22.87
2018-06-02T17:05:33.789Z,17.73
2018-06-02T17:08:02.688Z,16.43
2018-06-02T17:10:32.148Z,17.47
2018-06-02T17:13:01.102Z,18.37
2018-06-02T17:15:29.957Z,19.00
2018-06-02T17:17:58.893Z,18.57
2018-06-02T17:20:28.084Z,15.23
2018-06-02T17:22:56.936Z,15.23
2018-06-02T17:25:25.814Z,16.10
2018-06-02T17:27:54.681Z,15.33
2018-06-02T17:30:23.599Z,18.90
2018-06-02T17:32:52.444Z,16.73
2018-06-02T17:35:21.326Z,16.07
2018-06-02T17:37:50.200Z,13.77
2018-06-02T17:40:19.202Z,15.03
2018-06-02T17:42:48.071Z,13.93
2018-06-02T17:45:18.149Z,15.03
2018-06-02T17:47:47.048Z,13.93
2018-06-02T17:50:15.937Z,15.57
2018-06-02T17:52:44.809Z,14.43
2018-06-02T17:55:13.915Z,16.20
2018-06-02T17:57:43.806Z,16.67
2018-06-02T18:00:12.709Z,16.90
2018-06-02T18:02:42.686Z,18.10
2018-06-02T18:05:12.008Z,19.67
2018-06-02T18:07:40.874Z,19.40
2018-06-02T18:10:09.717Z,27.70
2018-06-02T18:12:38.602Z,23.77
2018-06-02T18:15:07.622Z,23.93
2018-06-02T18:17:36.642Z,25.97
2018-06-02T18:20:05.584Z,32.70
2018-06-02T18:22:34.726Z,33.17
2018-06-02T18:25:03.892Z,26.47
2018-06-02T18:27:32.744Z,35.20
2018-06-02T18:30:01.652Z,37.90
2018-06-02T18:32:30.558Z,41.03
2018-06-02T18:34:59.409Z,39.93
2018-06-02T18:37:28.318Z,38.90
2018-06-02T18:39:57.434Z,39.67
2018-06-02T18:42:26.280Z,37.87
2018-06-02T18:44:56.230Z,43.93
2018-06-02T18:50:18.922Z,42.57
2018-06-02T18:52:50.448Z,41.97
2018-06-02T18:55:20.356Z,48.00
2018-06-02T18:57:49.454Z,47.40
2018-06-02T19:00:18.410Z,45.20
2018-06-02T19:02:47.316Z,43.90
2018-06-02T19:05:16.188Z,40.60
2018-06-02T19:07:45.046Z,45.83
2018-06-02T19:10:13.944Z,40.47
2018-06-02T19:12:42.790Z,40.03
2018-06-02T19:15:11.927Z,47.00
2018-06-02T19:17:40.811Z,39.57
2018-06-02T19:20:09.705Z,41.73
2018-06-02T19:22:38.634Z,44.23
2018-06-02T19:25:07.562Z,38.10
2018-06-02T19:27:36.444Z,42.30
2018-06-02T19:30:05.559Z,47.53
2018-06-02T19:32:34.427Z,44.57
2018-06-02T19:35:03.423Z,38.57
2018-06-02T19:37:32.285Z,43.10
2018-06-02T19:40:01.399Z,41.37
2018-06-02T19:42:30.273Z,41.03
2018-06-02T19:44:59.121Z,42.90
2018-06-02T19:47:27.969Z,45.87
2018-06-02T19:49:56.843Z,47.43
2018-06-02T19:52:25.737Z,41.07
2018-06-02T19:54:55.341Z,42.13
2018-06-02T19:57:24.278Z,41.37
2018-06-02T19:59:53.157Z,43.13
2018-06-02T20:02:22.045Z,43.43
2018-06-02T20:04:50.895Z,42.80
2018-06-02T20:07:19.769Z,39.03
2018-06-02T20:09:48.667Z,40.97
2018-06-02T20:12:18.315Z,37.30
2018-06-02T20:14:47.204Z,35.93
2018-06-02T20:17:16.079Z,36.27
2018-06-02T20:19:44.944Z,41.43
2018-06-02T20:22:13.791Z,37.10
2018-06-02T20:24:42.670Z,34.87
2018-06-02T20:27:11.518Z,35.50
2018-06-02T20:29:40.825Z,36.57
2018-06-02T20:32:09.723Z,33.77
2018-06-02T20:34:38.628Z,34.60
2018-06-02T20:37:07.466Z,33.10
2018-06-02T20:39:36.312Z,30.80
2018-06-02T20:42:05.161Z,37.63
2018-06-02T20:44:34.040Z,35.63
2018-06-02T20:47:02.930Z,33.43
2018-06-02T20:49:31.791Z,36.33
2018-06-02T20:52:00.666Z,30.97
2018-06-02T20:54:29.546Z,34.70
2018-06-02T20:56:58.416Z,31.70
2018-06-02T20:59:27.255Z,40.23
2018-06-02T21:01:56.116Z,38.43
2018-06-02T21:04:25.010Z,37.60
2018-06-02T21:06:54.333Z,38.60
2018-06-02T21:09:23.394Z,40.43
2018-06-02T21:11:52.246Z,39.70
2018-06-02T21:14:21.110Z,32.93
2018-06-02T21:16:49.997Z,35.77
2018-06-02T21:19:18.873Z,37.37
2018-06-02T21:21:47.754Z,32.50
2018-06-02T21:24:16.701Z,32.17
2018-06-02T21:26:45.578Z,31.83
2018-06-02T21:29:14.915Z,34.40
2018-06-02T21:31:44.390Z,36.57
2018-06-02T21:34:13.804Z,37.53
2018-06-02T21:36:42.737Z,44.37
2018-06-02T21:39:11.793Z,27.93
2018-06-02T21:41:40.959Z,42.57
2018-06-02T21:44:09.795Z,35.20
2018-06-02T21:46:38.669Z,47.07
2018-06-02T21:49:07.519Z,32.70
2018-06-02T21:51:36.442Z,46.30
2018-06-02T21:54:05.341Z,39.23
2018-06-02T21:56:35.167Z,46.97
2018-06-02T21:59:04.095Z,46.37
2018-06-02T22:01:32.955Z,42.97
2018-06-02T22:04:01.962Z,42.87
2018-06-02T22:06:30.847Z,38.33
2018-06-02T22:08:59.729Z,44.80
2018-06-02T22:11:28.629Z,35.30
2018-06-02T22:13:57.498Z,30.83
2018-06-02T22:16:26.414Z,40.50
2018-06-02T22:18:55.261Z,42.40
2018-06-02T22:21:24.140Z,40.43
2018-06-02T22:23:53.031Z,37.73
2018-06-02T22:26:22.799Z,34.80
2018-06-02T22:28:51.688Z,37.83
2018-06-02T22:31:20.549Z,27.20
2018-06-02T22:33:49.435Z,32.70
2018-06-02T22:36:18.362Z,30.67
2018-06-02T22:38:47.217Z,39.33
2018-06-02T22:41:16.070Z,35.67
2018-06-02T22:43:44.969Z,30.07
2018-06-02T22:46:13.853Z,33.50
2018-06-02T22:48:42.692Z,50.80
2018-06-02T22:51:11.573Z,40.80
2018-06-02T22:53:40.461Z,54.80
2018-06-02T22:56:09.325Z,36.20
2018-06-02T22:58:38.207Z,34.23
2018-06-02T23:01:07.090Z,40.17
2018-06-02T23:03:35.966Z,43.70
2018-06-02T23:06:04.863Z,38.90
2018-06-02T23:08:37.573Z,38.37
2018-06-02T23:11:06.473Z,28.30
2018-06-02T23:13:35.358Z,35.33
2018-06-02T23:16:04.226Z,35.33
2018-06-02T23:18:33.116Z,35.63
2018-06-02T23:21:01.971Z,28.93
2018-06-02T23:23:30.810Z,28.20
2018-06-02T23:25:59.706Z,36.93
2018-06-02T23:28:59.686Z,31.00
2018-06-02T23:31:27.913Z,29.30
2018-06-02T23:33:56.107Z,32.03
2018-06-02T23:36:24.401Z,34.23
2018-06-02T23:38:52.737Z,32.90
2018-06-02T23:41:21.835Z,28.03
2018-06-02T23:43:50.006Z,34.80
2018-06-02T23:46:18.195Z,28.30
2018-06-02T23:48:46.321Z,36.33
2018-06-02T23:51:14.520Z,33.93
2018-06-02T23:53:43.067Z,34.77
2018-06-02T23:56:11.249Z,28.97
2018-06-02T23:58:39.446Z,28.73
